createdAt,value
2023-05-16T00:00:40.583Z,2.50
2023-05-16T00:03:07.562Z,1.75
2023-05-16T00:05:34.463Z,2.05
2023-05-16T00:08:01.375Z,2.38
2023-05-16T00:10:28.520Z,2.40
2023-05-16T00:12:56.297Z,2.33
2023-05-16T00:15:25.080Z,2.25
2023-05-16T00:17:52.072Z,2.15
2023-05-16T00:20:23.370Z,2.75
2023-05-16T00:22:51.105Z,3.28
2023-05-16T00:25:18.402Z,2.35
2023-05-16T00:27:45.554Z,2.42
2023-05-16T00:30:12.772Z,2.10
2023-05-16T00:32:39.807Z,2.85
2023-05-16T00:35:10.514Z,2.10
2023-05-16T00:37:38.703Z,2.95
2023-05-16T00:40:06.116Z,2.40
2023-05-16T00:42:33.022Z,2.83
2023-05-16T00:45:00.325Z,2.00
2023-05-16T00:47:28.695Z,1.95
2023-05-16T00:49:55.703Z,2.28
2023-05-16T00:52:23.047Z,1.60
2023-05-16T00:54:51.088Z,2.67
2023-05-16T00:57:18.459Z,2.25
2023-05-16T00:59:46.838Z,2.25
2023-05-16T01:02:14.541Z,2.42
2023-05-16T01:04:42.891Z,2.38
2023-05-16T01:07:09.793Z,2.67
2023-05-16T01:09:37.254Z,1.88
2023-05-16T01:12:35.258Z,1.65
2023-05-16T01:15:22.576Z,2.03
2023-05-16T01:18:19.297Z,1.63
2023-05-16T01:20:55.850Z,2.25
2023-05-16T01:24:03.732Z,2.20
2023-05-16T01:26:32.251Z,1.88
2023-05-16T01:29:00.994Z,1.83
2023-05-16T01:31:28.859Z,2.83
2023-05-16T01:33:58.302Z,2.45
2023-05-16T01:36:28.185Z,2.58
2023-05-16T01:39:22.517Z,1.67
2023-05-16T01:42:01.209Z,1.95
2023-05-16T01:44:52.632Z,1.80
2023-05-16T01:47:22.569Z,1.83
2023-05-16T01:50:09.219Z,2.05
2023-05-16T01:52:41.174Z,1.73
2023-05-16T01:55:12.218Z,2.75
2023-05-16T01:57:40.307Z,1.88
2023-05-16T02:00:08.616Z,2.38
2023-05-16T02:02:41.182Z,2.40
2023-05-16T02:05:09.296Z,2.30
2023-05-16T02:07:36.865Z,2.38
2023-05-16T02:10:04.937Z,2.05
2023-05-16T02:12:35.419Z,2.33
2023-05-16T02:15:02.402Z,2.25
2023-05-16T02:17:32.183Z,1.90
2023-05-16T02:20:06.843Z,1.92
2023-05-16T02:22:34.062Z,2.33
2023-05-16T02:25:02.540Z,2.13
2023-05-16T02:27:32.516Z,2.70
2023-05-16T02:29:59.535Z,1.95
2023-05-16T02:32:26.652Z,2.03
2023-05-16T02:34:53.638Z,2.50
2023-05-16T02:37:20.526Z,2.05
2023-05-16T02:39:49.584Z,1.88
2023-05-16T02:42:16.623Z,2.45
2023-05-16T02:44:43.521Z,2.28
2023-05-16T02:47:10.289Z,1.98
2023-05-16T02:49:37.018Z,1.80
2023-05-16T02:52:04.149Z,2.30
2023-05-16T02:54:30.968Z,1.83
2023-05-16T02:56:57.782Z,1.92
2023-05-16T02:59:24.578Z,2.17
2023-05-16T03:01:51.514Z,2.17
2023-05-16T03:04:18.542Z,2.25
2023-05-16T03:06:45.332Z,2.33
2023-05-16T03:09:12.230Z,1.88
2023-05-16T03:11:39.116Z,1.75
2023-05-16T03:14:05.994Z,2.40
2023-05-16T03:16:33.038Z,1.85
2023-05-16T03:18:59.961Z,2.30
2023-05-16T03:21:27.369Z,2.22
2023-05-16T03:23:55.112Z,2.13
2023-05-16T03:26:22.813Z,2.13
2023-05-16T03:28:51.899Z,2.95
2023-05-16T03:31:18.780Z,1.85
2023-05-16T03:33:45.692Z,2.80
2023-05-16T03:36:12.721Z,2.38
2023-05-16T03:38:39.626Z,2.25
2023-05-16T03:41:06.479Z,2.08
2023-05-16T03:43:33.298Z,1.88
2023-05-16T03:46:02.356Z,2.17
2023-05-16T03:48:29.532Z,2.15
2023-05-16T03:50:56.443Z,1.63
2023-05-16T03:53:23.277Z,2.20
2023-05-16T03:55:50.040Z,2.50
2023-05-16T03:58:17.010Z,2.33
2023-05-16T04:00:45.631Z,1.90
2023-05-16T04:03:16.460Z,2.08
2023-05-16T04:05:43.431Z,1.85
2023-05-16T04:08:10.340Z,2.50
2023-05-16T04:10:37.075Z,1.73
2023-05-16T04:13:04.122Z,2.00
2023-05-16T04:15:31.056Z,1.80
2023-05-16T04:17:57.985Z,2.17
2023-05-16T04:20:24.733Z,1.55
2023-05-16T04:22:51.984Z,2.05
2023-05-16T04:25:18.882Z,2.20
2023-05-16T04:27:45.837Z,2.08
2023-05-16T04:30:14.158Z,1.73
2023-05-16T04:32:41.160Z,2.30
2023-05-16T04:35:09.247Z,2.30
2023-05-16T04:37:36.289Z,1.75
2023-05-16T04:40:03.366Z,2.30
2023-05-16T04:42:30.164Z,2.25
2023-05-16T04:44:57.356Z,1.60
2023-05-16T04:47:24.116Z,1.55
2023-05-16T04:49:51.135Z,2.17
2023-05-16T04:52:17.919Z,1.77
2023-05-16T04:54:44.761Z,1.80
2023-05-16T04:57:11.512Z,2.20
2023-05-16T04:59:38.579Z,1.80
2023-05-16T05:02:05.889Z,2.20
2023-05-16T05:04:32.984Z,1.42
2023-05-16T05:06:59.984Z,2.22
2023-05-16T05:09:27.085Z,2.08
2023-05-16T05:11:53.932Z,2.28
2023-05-16T05:14:21.717Z,1.88
2023-05-16T05:16:48.604Z,2.40
2023-05-16T05:19:16.169Z,1.83
2023-05-16T05:21:43.124Z,2.50
2023-05-16T05:24:10.433Z,1.98
2023-05-16T05:26:37.500Z,2.08
2023-05-16T05:29:06.038Z,2.08
2023-05-16T05:31:35.968Z,1.88
2023-05-16T05:34:03.650Z,1.55
2023-05-16T05:36:31.045Z,1.85
2023-05-16T05:38:57.922Z,2.53
2023-05-16T05:41:24.707Z,1.80
2023-05-16T05:43:52.286Z,1.95
2023-05-16T05:46:21.943Z,1.60
2023-05-16T05:48:49.388Z,2.13
2023-05-16T05:51:16.337Z,1.67
2023-05-16T05:53:45.658Z,1.60
2023-05-16T05:56:12.852Z,1.92
2023-05-16T05:58:41.918Z,1.30
2023-05-16T06:01:08.831Z,2.20
2023-05-16T06:03:35.791Z,1.58
2023-05-16T06:06:02.754Z,1.70
2023-05-16T06:08:29.863Z,1.60
2023-05-16T06:10:56.701Z,1.80
2023-05-16T06:13:23.571Z,1.50
2023-05-16T06:15:54.124Z,1.35
2023-05-16T06:18:21.779Z,1.40
2023-05-16T06:20:48.804Z,1.80
2023-05-16T06:23:15.830Z,1.73
2023-05-16T06:25:42.775Z,1.85
2023-05-16T06:28:10.508Z,1.42
2023-05-16T06:30:37.304Z,1.48
2023-05-16T06:33:04.050Z,2.03
2023-05-16T06:35:30.953Z,1.75
2023-05-16T06:37:57.786Z,1.17
2023-05-16T06:40:24.815Z,1.80
2023-05-16T06:42:54.782Z,1.40
2023-05-16T06:45:22.430Z,1.52
2023-05-16T06:47:49.464Z,1.50
2023-05-16T06:50:16.406Z,1.70
2023-05-16T06:52:43.384Z,1.27
2023-05-16T06:55:10.693Z,1.48
2023-05-16T06:57:37.509Z,1.88
2023-05-16T07:00:04.844Z,1.20
2023-05-16T07:02:32.097Z,1.00
2023-05-16T07:04:59.090Z,2.03
2023-05-16T07:07:26.584Z,1.48
2023-05-16T07:09:56.612Z,1.08
2023-05-16T07:12:23.465Z,1.52
2023-05-16T07:14:50.586Z,1.55
2023-05-16T07:17:17.475Z,1.15
2023-05-16T07:19:44.326Z,1.10
2023-05-16T07:22:12.545Z,1.17
2023-05-16T07:24:39.483Z,1.15
2023-05-16T07:27:06.656Z,1.15
2023-05-16T07:29:33.648Z,1.02
2023-05-16T07:32:00.555Z,1.17
2023-05-16T07:34:27.555Z,1.20
2023-05-16T07:36:54.672Z,1.00
2023-05-16T07:39:21.462Z,1.00
2023-05-16T07:41:48.363Z,0.80
2023-05-16T07:44:15.361Z,0.98
2023-05-16T07:46:44.987Z,1.42
2023-05-16T07:49:12.115Z,1.27
2023-05-16T07:51:38.926Z,1.85
2023-05-16T07:54:05.871Z,0.93
2023-05-16T07:56:32.991Z,1.20
2023-05-16T07:59:00.252Z,1.63
2023-05-16T08:01:29.388Z,1.02
2023-05-16T08:03:56.388Z,1.20
2023-05-16T08:06:23.292Z,1.05
2023-05-16T08:08:50.065Z,1.05
2023-05-16T08:11:16.833Z,1.00
2023-05-16T08:13:43.620Z,1.25
2023-05-16T08:16:11.858Z,1.55
2023-05-16T08:18:39.227Z,1.42
2023-05-16T08:21:06.220Z,1.00
2023-05-16T08:23:33.064Z,1.20
2023-05-16T08:26:00.119Z,1.52
2023-05-16T08:28:26.883Z,1.00
2023-05-16T08:30:54.360Z,1.40
2023-05-16T08:33:21.315Z,1.40
2023-05-16T08:35:49.507Z,1.67
2023-05-16T08:38:16.427Z,1.73
2023-05-16T08:40:43.682Z,1.13
2023-05-16T08:43:10.670Z,1.73
2023-05-16T08:45:37.533Z,1.60
2023-05-16T08:48:08.661Z,1.20
2023-05-16T08:50:37.572Z,0.90
2023-05-16T08:53:07.844Z,2.67
2023-05-16T08:55:36.331Z,1.20
2023-05-16T08:58:04.274Z,1.10
2023-05-16T09:00:31.777Z,1.25
2023-05-16T09:02:59.162Z,1.48
2023-05-16T09:05:27.379Z,0.98
2023-05-16T09:07:54.416Z,1.15
2023-05-16T09:10:21.756Z,1.40
2023-05-16T09:12:49.648Z,1.30
2023-05-16T09:15:19.022Z,1.35
2023-05-16T09:17:47.060Z,1.13
2023-05-16T09:20:20.080Z,1.23
2023-05-16T09:22:55.363Z,1.13
2023-05-16T09:27:59.347Z,1.15
2023-05-16T09:30:30.588Z,1.38
2023-05-16T09:32:58.004Z,1.20
2023-05-16T09:35:42.552Z,1.45
2023-05-16T09:38:16.697Z,1.10
2023-05-16T09:40:44.455Z,1.40
2023-05-16T09:43:23.475Z,0.90
2023-05-16T09:45:55.530Z,1.23
2023-05-16T09:50:53.391Z,1.75
2023-05-16T09:53:31.461Z,1.90
2023-05-16T09:56:05.198Z,1.60
2023-05-16T09:58:33.286Z,1.20
2023-05-16T10:01:00.640Z,1.13
2023-05-16T10:03:28.478Z,1.10
2023-05-16T10:05:56.387Z,1.00
2023-05-16T10:08:25.340Z,0.90
2023-05-16T10:10:56.948Z,1.42
2023-05-16T10:13:28.916Z,1.25
2023-05-16T10:15:57.980Z,1.30
2023-05-16T10:18:32.494Z,1.40
2023-05-16T10:21:06.211Z,1.10
2023-05-16T10:23:34.727Z,1.20
2023-05-16T10:26:04.802Z,1.00
2023-05-16T10:28:32.403Z,1.25
2023-05-16T10:31:01.312Z,1.10
2023-05-16T10:33:28.810Z,1.25
2023-05-16T10:35:57.063Z,1.08
2023-05-16T10:38:25.115Z,1.92
2023-05-16T10:40:52.653Z,1.42
2023-05-16T10:43:30.795Z,1.48
2023-05-16T10:46:04.295Z,1.25
2023-05-16T10:48:33.406Z,1.35
2023-05-16T10:51:02.713Z,1.02
2023-05-16T10:53:36.337Z,1.10
2023-05-16T10:56:03.378Z,1.20
2023-05-16T10:58:44.688Z,1.58
2023-05-16T11:01:22.468Z,1.17
2023-05-16T11:03:58.459Z,1.50
2023-05-16T11:06:26.929Z,1.10
2023-05-16T11:09:11.719Z,1.45
2023-05-16T11:11:49.113Z,1.25
2023-05-16T11:14:23.450Z,1.00
2023-05-16T11:17:21.201Z,0.95
2023-05-16T11:19:52.918Z,1.20
2023-05-16T11:22:19.942Z,1.45
2023-05-16T11:24:55.409Z,1.08
2023-05-16T11:27:45.733Z,0.98
2023-05-16T11:30:18.013Z,1.10
2023-05-16T11:32:46.555Z,1.02
2023-05-16T11:35:15.598Z,0.90
2023-05-16T11:37:43.254Z,1.20
2023-05-16T11:40:12.346Z,1.13
2023-05-16T11:42:41.501Z,1.33
2023-05-16T11:45:16.526Z,1.63
2023-05-16T11:47:47.961Z,1.30
2023-05-16T11:50:20.738Z,1.17
2023-05-16T11:52:50.552Z,1.00
2023-05-16T11:55:28.385Z,1.40
2023-05-16T11:58:06.565Z,0.80
2023-05-16T12:00:33.629Z,1.00
2023-05-16T12:03:05.614Z,1.20
2023-05-16T12:05:34.805Z,0.88
2023-05-16T12:08:02.659Z,1.05
2023-05-16T12:10:34.035Z,1.20
2023-05-16T12:13:01.401Z,1.30
2023-05-16T12:15:28.579Z,1.20
2023-05-16T12:17:56.935Z,1.40
2023-05-16T12:20:26.194Z,1.10
2023-05-16T12:22:53.428Z,0.90
2023-05-16T12:25:29.357Z,1.30
2023-05-16T12:28:00.008Z,1.10
2023-05-16T12:30:28.442Z,1.23
2023-05-16T12:33:15.792Z,0.93
2023-05-16T12:35:45.141Z,1.00
2023-05-16T12:38:14.166Z,1.10
2023-05-16T12:40:42.733Z,1.00
2023-05-16T12:43:16.816Z,1.33
2023-05-16T12:45:58.804Z,1.50
2023-05-16T12:48:37.287Z,1.50
2023-05-16T12:51:19.451Z,0.98
2023-05-16T12:54:01.402Z,1.17
2023-05-16T12:56:45.042Z,1.10
2023-05-16T12:59:15.131Z,1.10
2023-05-16T13:01:42.505Z,1.02
2023-05-16T13:04:09.793Z,1.20
2023-05-16T13:06:55.506Z,1.33
2023-05-16T13:09:24.440Z,1.27
2023-05-16T13:11:54.265Z,1.20
2023-05-16T13:14:21.101Z,1.42
2023-05-16T13:16:48.039Z,0.90
2023-05-16T13:19:14.973Z,1.60
2023-05-16T13:21:41.936Z,1.13
2023-05-16T13:24:08.993Z,1.40
2023-05-16T13:26:35.920Z,1.17
2023-05-16T13:29:02.818Z,1.50
2023-05-16T13:31:32.311Z,1.58
2023-05-16T13:33:59.316Z,1.10
2023-05-16T13:36:26.054Z,1.35
2023-05-16T13:38:52.968Z,1.10
2023-05-16T13:41:19.957Z,1.58
2023-05-16T13:43:46.771Z,1.00
2023-05-16T13:46:13.960Z,1.00
2023-05-16T13:48:42.511Z,1.05
2023-05-16T13:51:10.883Z,1.30
2023-05-16T13:53:39.523Z,1.23
2023-05-16T13:56:07.569Z,0.93
2023-05-16T13:58:43.008Z,1.30
2023-05-16T14:01:19.647Z,1.02
2023-05-16T14:03:46.966Z,1.25
2023-05-16T14:06:13.902Z,1.77
2023-05-16T14:08:40.843Z,0.90
2023-05-16T14:11:07.786Z,1.10
2023-05-16T14:13:34.637Z,1.35
2023-05-16T14:16:02.697Z,1.35
2023-05-16T14:18:29.738Z,1.50
2023-05-16T14:20:56.912Z,1.20
2023-05-16T14:23:24.020Z,1.23
2023-05-16T14:25:51.293Z,1.10
2023-05-16T14:28:18.478Z,0.93
2023-05-16T14:30:47.344Z,1.10
2023-05-16T14:33:15.045Z,0.77
2023-05-16T14:35:42.711Z,1.55
2023-05-16T14:38:10.133Z,1.33
2023-05-16T14:40:37.266Z,1.40
2023-05-16T14:43:04.597Z,1.30
2023-05-16T14:45:31.993Z,1.40
2023-05-16T14:47:59.609Z,1.00
2023-05-16T14:50:29.534Z,1.25
2023-05-16T14:52:56.618Z,1.08
2023-05-16T14:55:24.015Z,1.40
2023-05-16T14:57:57.090Z,1.88
2023-05-16T15:00:26.968Z,1.00
2023-05-16T15:02:54.037Z,1.20
2023-05-16T15:05:22.259Z,1.10
2023-05-16T15:07:50.130Z,1.17
2023-05-16T15:10:20.271Z,1.10
2023-05-16T15:12:48.347Z,1.27
2023-05-16T15:15:16.799Z,1.15
2023-05-16T15:17:50.118Z,1.20
2023-05-16T15:20:17.385Z,1.15
2023-05-16T15:22:44.613Z,1.20
2023-05-16T15:25:13.008Z,0.88
2023-05-16T15:27:39.772Z,1.50
2023-05-16T15:30:08.420Z,0.90
2023-05-16T15:32:35.521Z,1.17
2023-05-16T15:35:02.530Z,1.10
2023-05-16T15:37:29.430Z,0.85
2023-05-16T15:39:56.426Z,0.95
2023-05-16T15:42:23.462Z,1.20
2023-05-16T15:44:50.298Z,1.00
2023-05-16T15:47:17.388Z,1.13
2023-05-16T15:49:44.364Z,1.60
2023-05-16T15:52:11.336Z,0.93
2023-05-16T15:54:38.220Z,1.52
2023-05-16T15:57:05.368Z,1.25
2023-05-16T15:59:32.333Z,1.13
2023-05-16T16:01:59.293Z,1.15
2023-05-16T16:04:26.093Z,1.02
2023-05-16T16:06:52.890Z,0.98
2023-05-16T16:09:19.647Z,1.33
2023-05-16T16:11:46.505Z,0.80
2023-05-16T16:14:13.626Z,1.00
2023-05-16T16:16:41.029Z,1.00
2023-05-16T16:19:11.785Z,1.20
2023-05-16T16:21:38.825Z,0.88
2023-05-16T16:24:06.000Z,1.20
2023-05-16T16:26:32.932Z,0.90
2023-05-16T16:29:00.023Z,0.90
2023-05-16T16:31:26.949Z,1.13
2023-05-16T16:33:54.769Z,1.00
2023-05-16T16:36:21.736Z,1.70
2023-05-16T16:38:48.933Z,1.63
2023-05-16T16:41:16.551Z,1.20
2023-05-16T16:43:43.526Z,1.70
2023-05-16T16:46:10.707Z,1.42
2023-05-16T16:48:37.767Z,1.08
2023-05-16T16:51:04.752Z,1.10
2023-05-16T16:53:33.686Z,1.52
2023-05-16T16:56:00.463Z,1.80
2023-05-16T16:58:27.344Z,2.92
2023-05-16T17:00:54.385Z,1.52
2023-05-16T17:03:21.856Z,1.55
2023-05-16T17:05:48.713Z,1.60
2023-05-16T17:08:15.661Z,2.40
2023-05-16T17:10:43.139Z,2.17
2023-05-16T17:13:12.219Z,1.98
2023-05-16T17:15:39.264Z,1.50
2023-05-16T17:18:09.300Z,1.58
2023-05-16T17:20:36.601Z,1.48
2023-05-16T17:23:04.213Z,1.58
2023-05-16T17:25:31.236Z,1.60
2023-05-16T17:27:58.275Z,1.45
2023-05-16T17:30:26.258Z,1.55
2023-05-16T17:32:54.157Z,1.80
2023-05-16T17:35:21.200Z,1.70
2023-05-16T17:37:48.093Z,1.73
2023-05-16T17:40:17.210Z,1.63
2023-05-16T17:42:45.257Z,1.50
2023-05-16T17:45:13.737Z,1.60
2023-05-16T17:47:43.191Z,1.70
2023-05-16T17:50:10.596Z,1.90
2023-05-16T17:52:40.615Z,1.80
2023-05-16T17:55:09.296Z,2.15
2023-05-16T17:57:36.187Z,1.80
2023-05-16T18:00:05.750Z,2.17
2023-05-16T18:02:32.751Z,1.73
2023-05-16T18:05:02.562Z,1.60
2023-05-16T18:07:29.322Z,1.30
2023-05-16T18:09:56.026Z,0.95
2023-05-16T18:12:23.018Z,1.00
2023-05-16T18:14:50.468Z,1.23
2023-05-16T18:17:17.373Z,1.42
2023-05-16T18:19:44.351Z,1.50
2023-05-16T18:22:12.431Z,1.38
2023-05-16T18:24:39.954Z,1.70
2023-05-16T18:27:07.138Z,1.70
2023-05-16T18:29:36.183Z,1.27
2023-05-16T18:32:04.183Z,1.15
2023-05-16T18:34:31.513Z,1.52
2023-05-16T18:36:58.737Z,1.30
2023-05-16T18:39:25.920Z,1.00
2023-05-16T18:41:55.971Z,1.27
2023-05-16T18:44:25.209Z,1.10
2023-05-16T18:46:52.407Z,1.20
2023-05-16T18:49:19.309Z,1.83
2023-05-16T18:51:46.212Z,1.60
2023-05-16T18:54:13.059Z,1.60
2023-05-16T18:56:39.858Z,1.95
2023-05-16T18:59:06.957Z,2.08
2023-05-16T19:01:34.072Z,1.50
2023-05-16T19:04:01.298Z,1.30
2023-05-16T19:06:28.367Z,1.73
2023-05-16T19:08:55.365Z,1.63
2023-05-16T19:11:22.907Z,1.52
2023-05-16T19:13:51.180Z,1.73
2023-05-16T19:16:24.521Z,1.50
2023-05-16T19:18:53.897Z,1.75
2023-05-16T19:21:21.231Z,1.92
2023-05-16T19:23:52.422Z,1.80
2023-05-16T19:26:28.976Z,1.83
2023-05-16T19:28:56.926Z,2.03
2023-05-16T19:31:24.028Z,1.50
2023-05-16T19:33:51.906Z,1.55
2023-05-16T19:36:21.954Z,1.92
2023-05-16T19:38:49.227Z,1.52
2023-05-16T19:41:16.533Z,1.90
2023-05-16T19:43:43.589Z,2.47
2023-05-16T19:46:10.653Z,2.72
2023-05-16T19:48:38.105Z,2.38
2023-05-16T19:51:11.859Z,2.65
2023-05-16T19:53:50.688Z,2.50
2023-05-16T19:56:19.938Z,2.38
2023-05-16T19:58:50.859Z,2.70
2023-05-16T20:01:17.963Z,2.70
2023-05-16T20:03:45.262Z,2.95
2023-05-16T20:06:12.304Z,2.72
2023-05-16T20:08:39.825Z,3.78
2023-05-16T20:11:06.784Z,3.95
2023-05-16T20:13:33.943Z,4.05
2023-05-16T20:16:01.095Z,2.38
2023-05-16T20:18:28.209Z,3.00
2023-05-16T20:20:56.837Z,2.60
2023-05-16T20:23:26.440Z,2.45
2023-05-16T20:25:53.198Z,2.63
2023-05-16T20:28:19.941Z,4.05
2023-05-16T20:30:46.954Z,3.53
2023-05-16T20:33:16.943Z,5.60
2023-05-16T20:35:43.721Z,5.05
2023-05-16T20:38:10.684Z,4.78
2023-05-16T20:40:37.960Z,4.57
2023-05-16T20:43:04.777Z,3.75
2023-05-16T20:45:31.757Z,2.22
2023-05-16T20:47:58.606Z,3.00
2023-05-16T20:50:27.438Z,3.20
2023-05-16T20:52:54.337Z,3.00
2023-05-16T20:55:21.474Z,3.35
2023-05-16T20:57:48.551Z,2.45
2023-05-16T21:00:15.923Z,1.83
2023-05-16T21:02:42.811Z,2.33
2023-05-16T21:05:23.890Z,2.15
2023-05-16T21:07:52.078Z,2.60
2023-05-16T21:10:18.961Z,2.60
2023-05-16T21:12:45.974Z,2.67
2023-05-16T21:15:12.882Z,2.60
2023-05-16T21:17:40.879Z,2.97
2023-05-16T21:20:08.626Z,2.03
2023-05-16T21:22:35.752Z,2.90
2023-05-16T21:25:02.640Z,2.63
2023-05-16T21:27:29.587Z,2.88
2023-05-16T21:29:56.409Z,2.80
2023-05-16T21:32:23.317Z,3.25
2023-05-16T21:34:50.180Z,3.15
2023-05-16T21:37:17.270Z,2.72
2023-05-16T21:39:44.103Z,3.00
2023-05-16T21:42:11.004Z,3.05
2023-05-16T21:44:37.810Z,3.10
2023-05-16T21:47:06.270Z,3.28
2023-05-16T21:49:34.678Z,2.70
2023-05-16T21:52:01.664Z,2.92
2023-05-16T21:54:28.691Z,2.90
2023-05-16T21:56:55.590Z,3.00
2023-05-16T21:59:22.413Z,2.65
2023-05-16T22:01:49.246Z,3.25
2023-05-16T22:04:16.482Z,2.97
2023-05-16T22:06:43.519Z,3.28
2023-05-16T22:09:11.678Z,2.72
2023-05-16T22:11:38.569Z,2.33
2023-05-16T22:14:05.818Z,2.45
2023-05-16T22:16:32.779Z,3.25
2023-05-16T22:18:59.937Z,2.75
2023-05-16T22:21:29.605Z,3.10
2023-05-16T22:23:59.398Z,3.33
2023-05-16T22:26:26.213Z,2.75
2023-05-16T22:28:53.111Z,3.15
2023-05-16T22:31:19.962Z,3.15
2023-05-16T22:33:47.119Z,2.92
2023-05-16T22:36:13.968Z,3.35
2023-05-16T22:38:40.952Z,3.35
2023-05-16T22:41:07.876Z,3.17
2023-05-16T22:43:34.904Z,2.90
2023-05-16T22:46:03.275Z,3.67
2023-05-16T22:48:30.556Z,3.83
2023-05-16T22:50:59.052Z,2.67
2023-05-16T22:53:26.036Z,3.25
2023-05-16T22:55:52.933Z,3.10
2023-05-16T22:58:20.140Z,3.90
2023-05-16T23:00:47.016Z,4.43
2023-05-16T23:03:14.015Z,3.40
2023-05-16T23:05:41.252Z,3.72
2023-05-16T23:08:08.372Z,3.33
2023-05-16T23:10:36.616Z,3.35
2023-05-16T23:13:03.506Z,3.92
2023-05-16T23:15:30.758Z,3.90
2023-05-16T23:17:57.930Z,3.40
2023-05-16T23:20:24.872Z,4.13
2023-05-16T23:22:51.804Z,4.80
2023-05-16T23:25:20.667Z,3.67
2023-05-16T23:27:47.519Z,4.05
2023-05-16T23:30:14.997Z,3.50
2023-05-16T23:32:42.053Z,3.40
2023-05-16T23:35:09.148Z,4.18
2023-05-16T23:37:36.108Z,3.92
2023-05-16T23:40:03.403Z,3.92
2023-05-16T23:42:30.328Z,3.53
2023-05-16T23:44:57.142Z,4.15
2023-05-16T23:47:24.057Z,3.60
2023-05-16T23:49:50.881Z,4.18
2023-05-16T23:52:17.833Z,3.83
2023-05-16T23:54:57.706Z,3.72
2023-05-16T23:57:24.520Z,3.80
2023-05-16T23:59:52.758Z,4.10
